Cooktown, Australia
Current Conditions -  °F | °C
As of 10:00 PM on Wednesday 28 Jan 2015 (Local Time) from YBCS Reporting Station
Scattered Clouds Scattered Clouds  
Wind Chill: 82°   Ceiling: Unl
Heat Index: 91°   Visibility: 6mi
Dew Point: 77°   Wind: 5mph
Humidity: 84%   Direction: 280°W
Pressure: 29.59"   Gusts: NA
Location:  15.47°S, 145.25°E
Report Text: YBCS 281200Z 28004KT 9999 FEW022 SCT300 28/25 Q1002
Loading
Personal Weather Stations






























Interactive Weather Map New forecast layout! Learn more

10-Day Weather Forecast

Advertisements
Track Severe Weather on mobile